Limon International, Costa Rica

4:33 PM CST on April 28, 2017 (GMT -0600)
Limon International | | Change Station

Elev 7 ft 9.96 °N, 83.02 °W | Updated 33 minutes ago

Partly Cloudy
Partly Cloudy
88 °F
Feels Like 102 °F
N
8
Wind Variable Wind from East

Today
High -- | Low -- °F
--% Chance of Precip.
Yesterday
High -- | Low -- °F
Precip. -- in
Pressure 29.75 in
Visibility 6.2 miles
Clouds Few 3000 ft
Scattered Clouds 22000 ft
Heat Index 102 °F
Dew Point 79 °F
Humidity 75%
Rainfall 0.00 in
Snow Depth Not available.
5:15 AM 5:43 PM
Waxing Crescent, 9% visible
METAR MRLM 282200Z 08007KT 9999 FEW030 SCT220 31/26 A2975
Pressure 29.75 in
Visibility 6.2 miles
Clouds Few 3000 ft
Scattered Clouds 22000 ft
Heat Index 102 °F
Dew Point 79 °F
Humidity 75%
Rainfall 0.00 in
Snow Depth Not available.
5:15 AM 5:43 PM
Waxing Crescent, 9% visible
METAR MRLM 282200Z 08007KT 9999 FEW030 SCT220 31/26 A2975

Get Severe Weather Alerts

Thanks for signing up!

Be on the lookout for a verification email in your inbox.

You'll start receiving the daily forecast at 8 AM.

×

10-Day Weather Forecast

No radar image for this location.
×

Almanac

Astronomy

Apr. 28, 2017 Rise Set
Actual Time
Civil Twilight
Nautical Twilight
Astronomical Twilight
Moon
Length of Visible Light
Length of Day
Tomorrow will be .
, % of the Moon is Illuminated

Today's Extremes

Country Highs Country Lows

Community

WunderPhotos

WunderBlog® & News

Nearby

Air Quality

  Air Quality AQ Index Pollutant
Not available.

Snow Depth

Station Depth Elevation

Earthquake Activity

City Distance Mag. Time & Date
Minimum magnitude displayed is 2.5.

Coastal Water Temperatures

Place Temperature

Stations

Nearby Weather Stations

Station Location Temp. Windchill Dew Point Humidity Wind Precip. Elev Updated Type